Terminal Aerodrome Forecast
Issued by NWS

Home | Current Version | Previous Version | Text Only | Print | Product List | Glossary On
Versions: 1 2 3 4 5 6 7 8 9 10 11 12 13 14 15 16 17 18 19 20 21 22 23 24 25 26 27 28 29 30 31 32 33 34
000
FTAK31 PANC 230540
TAFADL
TAF
PADL 230540Z 2306/2406 20007KT P6SM VCSH SCT025 OVC040
      TEMPO 2307/2311 SCT015 BKN025
     FM231100 16006KT P6SM -RA SCT008 OVC015
     FM231800 14011G18KT P6SM -RA SCT008 OVC015=

USA.gov is the U.S. government's official web portal to all federal, state and local government web resources and services.